sensor_id;sensor_type;location;lat;lon;timestamp;P1;durP1;ratioP1;P2;durP2;ratioP2
8803;SDS011;4438;50.890;4.726;2023-05-07T00:02:19;6.43;;;5.83;;
8803;SDS011;4438;50.890;4.726;2023-05-07T00:04:45;5.97;;;5.40;;
8803;SDS011;4438;50.890;4.726;2023-05-07T00:07:11;5.57;;;4.93;;
8803;SDS011;4438;50.890;4.726;2023-05-07T00:09:37;5.60;;;5.10;;
8803;SDS011;4438;50.890;4.726;2023-05-07T00:12:04;5.97;;;5.37;;
8803;SDS011;4438;50.890;4.726;2023-05-07T00:14:30;5.37;;;4.90;;
8803;SDS011;4438;50.890;4.726;2023-05-07T00:16:56;5.13;;;4.63;;
8803;SDS011;4438;50.890;4.726;2023-05-07T00:19:22;5.97;;;5.37;;
8803;SDS011;4438;50.890;4.726;2023-05-07T00:21:48;5.37;;;4.87;;
8803;SDS011;4438;50.890;4.726;2023-05-07T00:24:15;5.83;;;5.33;;
8803;SDS011;4438;50.890;4.726;2023-05-07T00:26:41;5.67;;;5.13;;
8803;SDS011;4438;50.890;4.726;2023-05-07T00:29:07;5.60;;;5.10;;
8803;SDS011;4438;50.890;4.726;2023-05-07T00:31:33;5.67;;;5.17;;
8803;SDS011;4438;50.890;4.726;2023-05-07T00:34:00;5.73;;;5.10;;
8803;SDS011;4438;50.890;4.726;2023-05-07T00:36:26;5.90;;;5.30;;
8803;SDS011;4438;50.890;4.726;2023-05-07T00:38:53;7.13;;;5.43;;
8803;SDS011;4438;50.890;4.726;2023-05-07T00:41:19;5.87;;;5.13;;
8803;SDS011;4438;50.890;4.726;2023-05-07T00:43:46;5.60;;;5.03;;
8803;SDS011;4438;50.890;4.726;2023-05-07T00:46:13;5.50;;;5.10;;
8803;SDS011;4438;50.890;4.726;2023-05-07T00:48:39;5.70;;;5.20;;
8803;SDS011;4438;50.890;4.726;2023-05-07T00:51:06;5.73;;;5.20;;
8803;SDS011;4438;50.890;4.726;2023-05-07T00:53:32;6.00;;;5.43;;
8803;SDS011;4438;50.890;4.726;2023-05-07T00:55:58;5.90;;;5.40;;
8803;SDS011;4438;50.890;4.726;2023-05-07T00:58:28;5.60;;;5.10;;
8803;SDS011;4438;50.890;4.726;2023-05-07T01:00:54;5.57;;;5.07;;
8803;SDS011;4438;50.890;4.726;2023-05-07T01:03:20;6.00;;;5.23;;
8803;SDS011;4438;50.890;4.726;2023-05-07T01:05:46;5.27;;;4.77;;
8803;SDS011;4438;50.890;4.726;2023-05-07T01:08:13;5.77;;;5.27;;
8803;SDS011;4438;50.890;4.726;2023-05-07T01:10:40;5.63;;;5.13;;
8803;SDS011;4438;50.890;4.726;2023-05-07T01:13:08;5.70;;;5.20;;
8803;SDS011;4438;50.890;4.726;2023-05-07T01:15:35;5.70;;;5.20;;
8803;SDS011;4438;50.890;4.726;2023-05-07T01:18:01;6.10;;;5.50;;
8803;SDS011;4438;50.890;4.726;2023-05-07T01:20:28;5.87;;;5.20;;
8803;SDS011;4438;50.890;4.726;2023-05-07T01:22:54;5.27;;;4.87;;
8803;SDS011;4438;50.890;4.726;2023-05-07T01:25:21;5.87;;;4.93;;
8803;SDS011;4438;50.890;4.726;2023-05-07T01:27:47;5.70;;;5.20;;
8803;SDS011;4438;50.890;4.726;2023-05-07T01:30:14;5.87;;;5.37;;
8803;SDS011;4438;50.890;4.726;2023-05-07T01:32:42;6.40;;;5.90;;
8803;SDS011;4438;50.890;4.726;2023-05-07T01:35:10;6.67;;;6.10;;
8803;SDS011;4438;50.890;4.726;2023-05-07T01:37:37;6.80;;;6.17;;
8803;SDS011;4438;50.890;4.726;2023-05-07T01:40:03;6.20;;;5.70;;
8803;SDS011;4438;50.890;4.726;2023-05-07T01:42:29;6.60;;;5.57;;
8803;SDS011;4438;50.890;4.726;2023-05-07T01:44:56;6.10;;;5.50;;
8803;SDS011;4438;50.890;4.726;2023-05-07T01:47:22;6.10;;;5.60;;
8803;SDS011;4438;50.890;4.726;2023-05-07T01:49:48;6.37;;;5.77;;
8803;SDS011;4438;50.890;4.726;2023-05-07T01:52:15;6.10;;;5.60;;
8803;SDS011;4438;50.890;4.726;2023-05-07T01:54:41;5.93;;;5.43;;
8803;SDS011;4438;50.890;4.726;2023-05-07T01:57:07;6.60;;;6.10;;
8803;SDS011;4438;50.890;4.726;2023-05-07T01:59:33;6.70;;;6.10;;
8803;SDS011;4438;50.890;4.726;2023-05-07T02:02:00;6.70;;;6.10;;
8803;SDS011;4438;50.890;4.726;2023-05-07T02:04:26;7.10;;;6.37;;
8803;SDS011;4438;50.890;4.726;2023-05-07T02:06:52;7.03;;;6.43;;
8803;SDS011;4438;50.890;4.726;2023-05-07T02:09:18;7.63;;;6.93;;
8803;SDS011;4438;50.890;4.726;2023-05-07T02:11:44;7.87;;;7.03;;
8803;SDS011;4438;50.890;4.726;2023-05-07T02:14:11;7.33;;;6.63;;
8803;SDS011;4438;50.890;4.726;2023-05-07T02:16:37;7.23;;;6.53;;
8803;SDS011;4438;50.890;4.726;2023-05-07T02:19:03;7.00;;;6.33;;
8803;SDS011;4438;50.890;4.726;2023-05-07T02:21:30;6.83;;;6.23;;
8803;SDS011;4438;50.890;4.726;2023-05-07T02:23:56;7.17;;;6.50;;
8803;SDS011;4438;50.890;4.726;2023-05-07T02:26:22;7.03;;;6.43;;
8803;SDS011;4438;50.890;4.726;2023-05-07T02:28:48;7.97;;;6.47;;
8803;SDS011;4438;50.890;4.726;2023-05-07T02:31:14;7.40;;;6.73;;
8803;SDS011;4438;50.890;4.726;2023-05-07T02:33:43;7.27;;;6.67;;
8803;SDS011;4438;50.890;4.726;2023-05-07T02:36:13;7.10;;;6.50;;
8803;SDS011;4438;50.890;4.726;2023-05-07T02:38:39;7.70;;;7.00;;
8803;SDS011;4438;50.890;4.726;2023-05-07T02:41:05;7.40;;;6.70;;
8803;SDS011;4438;50.890;4.726;2023-05-07T02:43:31;7.30;;;6.70;;
8803;SDS011;4438;50.890;4.726;2023-05-07T02:46:04;7.37;;;6.77;;
8803;SDS011;4438;50.890;4.726;2023-05-07T02:48:31;7.43;;;6.83;;
8803;SDS011;4438;50.890;4.726;2023-05-07T02:50:57;7.67;;;6.97;;
8803;SDS011;4438;50.890;4.726;2023-05-07T02:53:26;8.30;;;7.60;;
8803;SDS011;4438;50.890;4.726;2023-05-07T02:55:53;8.23;;;7.53;;
8803;SDS011;4438;50.890;4.726;2023-05-07T02:58:19;9.53;;;8.63;;
8803;SDS011;4438;50.890;4.726;2023-05-07T03:00:45;9.07;;;8.30;;
8803;SDS011;4438;50.890;4.726;2023-05-07T03:03:11;8.63;;;7.83;;
8803;SDS011;4438;50.890;4.726;2023-05-07T03:05:38;9.20;;;8.40;;
8803;SDS011;4438;50.890;4.726;2023-05-07T03:08:04;9.03;;;8.27;;
8803;SDS011;4438;50.890;4.726;2023-05-07T03:10:30;8.83;;;8.07;;
8803;SDS011;4438;50.890;4.726;2023-05-07T03:12:56;8.73;;;8.03;;
8803;SDS011;4438;50.890;4.726;2023-05-07T03:15:22;9.63;;;8.80;;
8803;SDS011;4438;50.890;4.726;2023-05-07T03:17:48;9.23;;;8.47;;
8803;SDS011;4438;50.890;4.726;2023-05-07T03:20:14;9.30;;;8.47;;
8803;SDS011;4438;50.890;4.726;2023-05-07T03:22:41;9.10;;;8.20;;
8803;SDS011;4438;50.890;4.726;2023-05-07T03:25:07;9.23;;;8.17;;
8803;SDS011;4438;50.890;4.726;2023-05-07T03:27:34;8.87;;;8.07;;
8803;SDS011;4438;50.890;4.726;2023-05-07T03:30:00;9.37;;;8.50;;
8803;SDS011;4438;50.890;4.726;2023-05-07T03:32:26;8.97;;;8.10;;
8803;SDS011;4438;50.890;4.726;2023-05-07T03:34:52;8.97;;;8.23;;
8803;SDS011;4438;50.890;4.726;2023-05-07T03:37:19;9.03;;;8.23;;
8803;SDS011;4438;50.890;4.726;2023-05-07T03:39:45;9.40;;;8.50;;
8803;SDS011;4438;50.890;4.726;2023-05-07T03:42:11;9.47;;;8.63;;
8803;SDS011;4438;50.890;4.726;2023-05-07T03:44:37;10.80;;;9.80;;
8803;SDS011;4438;50.890;4.726;2023-05-07T03:47:03;12.97;;;11.77;;
8803;SDS011;4438;50.890;4.726;2023-05-07T03:49:29;13.07;;;11.77;;
8803;SDS011;4438;50.890;4.726;2023-05-07T03:51:56;14.47;;;13.17;;
8803;SDS011;4438;50.890;4.726;2023-05-07T03:54:22;14.13;;;12.97;;
8803;SDS011;4438;50.890;4.726;2023-05-07T03:56:48;12.70;;;11.53;;
8803;SDS011;4438;50.890;4.726;2023-05-07T03:59:14;13.23;;;12.03;;
8803;SDS011;4438;50.890;4.726;2023-05-07T04:01:40;12.60;;;11.47;;
8803;SDS011;4438;50.890;4.726;2023-05-07T04:04:06;11.93;;;10.93;;
8803;SDS011;4438;50.890;4.726;2023-05-07T04:06:32;12.10;;;11.00;;
8803;SDS011;4438;50.890;4.726;2023-05-07T04:08:59;11.87;;;10.67;;
8803;SDS011;4438;50.890;4.726;2023-05-07T04:11:26;11.63;;;10.73;;
8803;SDS011;4438;50.890;4.726;2023-05-07T04:13:52;12.37;;;11.27;;
8803;SDS011;4438;50.890;4.726;2023-05-07T04:16:18;11.57;;;10.57;;
8803;SDS011;4438;50.890;4.726;2023-05-07T04:18:44;13.03;;;11.87;;
8803;SDS011;4438;50.890;4.726;2023-05-07T04:21:15;15.90;;;14.50;;
8803;SDS011;4438;50.890;4.726;2023-05-07T04:23:41;13.53;;;12.33;;
8803;SDS011;4438;50.890;4.726;2023-05-07T04:26:07;15.67;;;14.23;;
8803;SDS011;4438;50.890;4.726;2023-05-07T04:28:34;14.47;;;13.17;;
8803;SDS011;4438;50.890;4.726;2023-05-07T04:31:00;14.70;;;13.37;;
8803;SDS011;4438;50.890;4.726;2023-05-07T04:33:26;13.90;;;12.70;;
8803;SDS011;4438;50.890;4.726;2023-05-07T04:35:52;14.17;;;12.97;;
8803;SDS011;4438;50.890;4.726;2023-05-07T04:38:18;13.80;;;12.50;;
8803;SDS011;4438;50.890;4.726;2023-05-07T04:40:44;13.33;;;12.13;;
8803;SDS011;4438;50.890;4.726;2023-05-07T04:43:12;12.83;;;11.73;;
8803;SDS011;4438;50.890;4.726;2023-05-07T04:45:38;13.80;;;12.50;;
8803;SDS011;4438;50.890;4.726;2023-05-07T04:48:06;12.83;;;11.63;;
8803;SDS011;4438;50.890;4.726;2023-05-07T04:50:32;13.47;;;12.23;;
8803;SDS011;4438;50.890;4.726;2023-05-07T04:52:58;12.53;;;11.33;;
8803;SDS011;4438;50.890;4.726;2023-05-07T04:55:24;12.00;;;11.00;;
8803;SDS011;4438;50.890;4.726;2023-05-07T04:57:51;12.93;;;11.67;;
8803;SDS011;4438;50.890;4.726;2023-05-07T05:00:17;12.57;;;11.43;;
8803;SDS011;4438;50.890;4.726;2023-05-07T05:02:45;12.63;;;11.43;;
8803;SDS011;4438;50.890;4.726;2023-05-07T05:05:11;11.80;;;10.70;;
8803;SDS011;4438;50.890;4.726;2023-05-07T05:07:37;11.67;;;10.67;;
8803;SDS011;4438;50.890;4.726;2023-05-07T05:10:04;12.00;;;10.90;;
8803;SDS011;4438;50.890;4.726;2023-05-07T05:12:31;11.63;;;10.63;;
8803;SDS011;4438;50.890;4.726;2023-05-07T05:14:57;13.87;;;12.43;;
8803;SDS011;4438;50.890;4.726;2023-05-07T05:17:23;12.80;;;11.67;;
8803;SDS011;4438;50.890;4.726;2023-05-07T05:19:49;13.37;;;12.27;;
8803;SDS011;4438;50.890;4.726;2023-05-07T05:22:15;13.43;;;12.23;;
8803;SDS011;4438;50.890;4.726;2023-05-07T05:24:42;13.87;;;12.67;;
8803;SDS011;4438;50.890;4.726;2023-05-07T05:27:08;13.20;;;12.07;;
8803;SDS011;4438;50.890;4.726;2023-05-07T05:29:34;12.87;;;11.70;;
8803;SDS011;4438;50.890;4.726;2023-05-07T05:32:00;13.70;;;12.40;;
8803;SDS011;4438;50.890;4.726;2023-05-07T05:34:26;14.03;;;12.73;;
8803;SDS011;4438;50.890;4.726;2023-05-07T05:36:52;15.40;;;14.10;;
8803;SDS011;4438;50.890;4.726;2023-05-07T05:39:18;14.53;;;13.33;;
8803;SDS011;4438;50.890;4.726;2023-05-07T05:41:46;13.70;;;12.47;;
8803;SDS011;4438;50.890;4.726;2023-05-07T05:44:12;14.30;;;13.00;;
8803;SDS011;4438;50.890;4.726;2023-05-07T05:46:38;15.10;;;13.90;;
8803;SDS011;4438;50.890;4.726;2023-05-07T05:49:06;15.90;;;14.50;;
8803;SDS011;4438;50.890;4.726;2023-05-07T05:51:33;15.33;;;14.03;;
8803;SDS011;4438;50.890;4.726;2023-05-07T05:53:59;14.90;;;13.50;;
8803;SDS011;4438;50.890;4.726;2023-05-07T05:56:25;15.43;;;13.97;;
8803;SDS011;4438;50.890;4.726;2023-05-07T05:58:52;16.00;;;14.50;;
8803;SDS011;4438;50.890;4.726;2023-05-07T06:01:21;16.37;;;14.70;;
8803;SDS011;4438;50.890;4.726;2023-05-07T06:03:47;15.10;;;13.60;;
8803;SDS011;4438;50.890;4.726;2023-05-07T06:06:13;15.40;;;13.90;;
8803;SDS011;4438;50.890;4.726;2023-05-07T06:08:39;14.80;;;13.30;;
8803;SDS011;4438;50.890;4.726;2023-05-07T06:11:05;14.53;;;13.20;;
8803;SDS011;4438;50.890;4.726;2023-05-07T06:13:31;14.13;;;12.83;;
8803;SDS011;4438;50.890;4.726;2023-05-07T06:15:58;14.80;;;13.40;;
8803;SDS011;4438;50.890;4.726;2023-05-07T06:18:24;15.10;;;13.50;;
8803;SDS011;4438;50.890;4.726;2023-05-07T06:20:51;15.23;;;13.73;;
8803;SDS011;4438;50.890;4.726;2023-05-07T06:23:17;13.50;;;12.07;;
8803;SDS011;4438;50.890;4.726;2023-05-07T06:25:47;12.73;;;11.63;;
8803;SDS011;4438;50.890;4.726;2023-05-07T06:28:14;14.23;;;12.93;;
8803;SDS011;4438;50.890;4.726;2023-05-07T06:30:41;14.53;;;13.07;;
8803;SDS011;4438;50.890;4.726;2023-05-07T06:33:07;13.30;;;12.07;;
8803;SDS011;4438;50.890;4.726;2023-05-07T06:35:33;14.20;;;12.80;;
8803;SDS011;4438;50.890;4.726;2023-05-07T06:37:59;13.77;;;12.47;;
8803;SDS011;4438;50.890;4.726;2023-05-07T06:40:26;13.07;;;11.90;;
8803;SDS011;4438;50.890;4.726;2023-05-07T06:42:52;14.13;;;12.73;;
8803;SDS011;4438;50.890;4.726;2023-05-07T06:45:19;13.13;;;11.93;;
8803;SDS011;4438;50.890;4.726;2023-05-07T06:47:45;11.50;;;9.93;;
8803;SDS011;4438;50.890;4.726;2023-05-07T06:50:11;12.27;;;8.97;;
8803;SDS011;4438;50.890;4.726;2023-05-07T06:52:37;9.53;;;8.27;;
8803;SDS011;4438;50.890;4.726;2023-05-07T06:55:04;9.63;;;8.50;;
8803;SDS011;4438;50.890;4.726;2023-05-07T06:57:31;8.33;;;7.53;;
8803;SDS011;4438;50.890;4.726;2023-05-07T06:59:58;10.47;;;7.50;;
8803;SDS011;4438;50.890;4.726;2023-05-07T07:02:24;9.20;;;7.30;;
8803;SDS011;4438;50.890;4.726;2023-05-07T07:04:50;9.47;;;7.17;;
8803;SDS011;4438;50.890;4.726;2023-05-07T07:07:16;9.47;;;7.03;;
8803;SDS011;4438;50.890;4.726;2023-05-07T07:09:42;9.93;;;7.50;;
8803;SDS011;4438;50.890;4.726;2023-05-07T07:12:08;10.47;;;7.07;;
8803;SDS011;4438;50.890;4.726;2023-05-07T07:14:35;7.67;;;6.63;;
8803;SDS011;4438;50.890;4.726;2023-05-07T07:17:01;8.83;;;6.60;;
8803;SDS011;4438;50.890;4.726;2023-05-07T07:19:27;7.83;;;6.53;;
8803;SDS011;4438;50.890;4.726;2023-05-07T07:21:53;7.00;;;6.27;;
8803;SDS011;4438;50.890;4.726;2023-05-07T07:24:19;9.43;;;6.70;;
8803;SDS011;4438;50.890;4.726;2023-05-07T07:26:46;9.57;;;6.70;;
8803;SDS011;4438;50.890;4.726;2023-05-07T07:29:12;8.07;;;6.67;;
8803;SDS011;4438;50.890;4.726;2023-05-07T07:31:39;8.33;;;6.27;;
8803;SDS011;4438;50.890;4.726;2023-05-07T07:34:05;9.50;;;6.17;;
8803;SDS011;4438;50.890;4.726;2023-05-07T07:36:31;5.63;;;5.13;;
8803;SDS011;4438;50.890;4.726;2023-05-07T07:38:57;8.63;;;5.87;;
8803;SDS011;4438;50.890;4.726;2023-05-07T07:41:23;7.33;;;5.77;;
8803;SDS011;4438;50.890;4.726;2023-05-07T07:43:50;6.60;;;5.70;;
8803;SDS011;4438;50.890;4.726;2023-05-07T07:46:16;7.73;;;5.00;;
8803;SDS011;4438;50.890;4.726;2023-05-07T07:48:42;6.40;;;5.20;;
8803;SDS011;4438;50.890;4.726;2023-05-07T07:51:08;7.97;;;5.20;;
8803;SDS011;4438;50.890;4.726;2023-05-07T07:53:34;6.20;;;5.10;;
8803;SDS011;4438;50.890;4.726;2023-05-07T07:56:00;6.17;;;5.00;;
8803;SDS011;4438;50.890;4.726;2023-05-07T07:58:27;7.80;;;5.27;;
8803;SDS011;4438;50.890;4.726;2023-05-07T08:00:53;7.37;;;5.43;;
8803;SDS011;4438;50.890;4.726;2023-05-07T08:03:21;9.03;;;6.03;;
8803;SDS011;4438;50.890;4.726;2023-05-07T08:05:47;7.73;;;6.30;;
8803;SDS011;4438;50.890;4.726;2023-05-07T08:08:16;9.83;;;6.03;;
8803;SDS011;4438;50.890;4.726;2023-05-07T08:10:42;7.50;;;6.27;;
8803;SDS011;4438;50.890;4.726;2023-05-07T08:13:08;7.73;;;5.77;;
8803;SDS011;4438;50.890;4.726;2023-05-07T08:15:34;8.17;;;6.10;;
8803;SDS011;4438;50.890;4.726;2023-05-07T08:18:01;12.53;;;6.37;;
8803;SDS011;4438;50.890;4.726;2023-05-07T08:20:28;7.00;;;5.13;;
8803;SDS011;4438;50.890;4.726;2023-05-07T08:22:54;7.07;;;4.97;;
8803;SDS011;4438;50.890;4.726;2023-05-07T08:25:20;8.07;;;5.33;;
8803;SDS011;4438;50.890;4.726;2023-05-07T08:27:46;6.73;;;4.83;;
8803;SDS011;4438;50.890;4.726;2023-05-07T08:30:13;7.73;;;5.40;;
8803;SDS011;4438;50.890;4.726;2023-05-07T08:32:39;6.63;;;4.97;;
8803;SDS011;4438;50.890;4.726;2023-05-07T08:35:05;5.20;;;4.07;;
8803;SDS011;4438;50.890;4.726;2023-05-07T08:37:31;6.07;;;4.63;;
8803;SDS011;4438;50.890;4.726;2023-05-07T08:39:57;5.37;;;4.47;;
8803;SDS011;4438;50.890;4.726;2023-05-07T08:42:23;6.53;;;4.73;;
8803;SDS011;4438;50.890;4.726;2023-05-07T08:44:51;4.80;;;4.23;;
8803;SDS011;4438;50.890;4.726;2023-05-07T08:47:20;5.73;;;4.70;;
8803;SDS011;4438;50.890;4.726;2023-05-07T08:49:48;7.60;;;5.00;;
8803;SDS011;4438;50.890;4.726;2023-05-07T08:52:15;7.37;;;5.13;;
8803;SDS011;4438;50.890;4.726;2023-05-07T08:54:41;5.07;;;4.47;;
8803;SDS011;4438;50.890;4.726;2023-05-07T08:57:08;7.23;;;5.10;;
8803;SDS011;4438;50.890;4.726;2023-05-07T08:59:34;6.10;;;4.90;;
8803;SDS011;4438;50.890;4.726;2023-05-07T09:02:01;6.43;;;4.90;;
8803;SDS011;4438;50.890;4.726;2023-05-07T09:04:27;6.27;;;4.60;;
8803;SDS011;4438;50.890;4.726;2023-05-07T09:06:54;6.77;;;4.90;;
8803;SDS011;4438;50.890;4.726;2023-05-07T09:09:21;5.03;;;4.53;;
8803;SDS011;4438;50.890;4.726;2023-05-07T09:11:47;7.63;;;4.80;;
8803;SDS011;4438;50.890;4.726;2023-05-07T09:14:13;4.97;;;4.37;;
8803;SDS011;4438;50.890;4.726;2023-05-07T09:16:39;5.80;;;4.53;;
8803;SDS011;4438;50.890;4.726;2023-05-07T09:19:06;4.93;;;4.43;;
8803;SDS011;4438;50.890;4.726;2023-05-07T09:21:32;4.87;;;4.30;;
8803;SDS011;4438;50.890;4.726;2023-05-07T09:23:58;6.53;;;4.43;;
8803;SDS011;4438;50.890;4.726;2023-05-07T09:26:24;7.23;;;4.73;;
8803;SDS011;4438;50.890;4.726;2023-05-07T09:28:52;7.03;;;4.73;;
8803;SDS011;4438;50.890;4.726;2023-05-07T09:31:18;7.17;;;4.30;;
8803;SDS011;4438;50.890;4.726;2023-05-07T09:33:44;6.87;;;4.97;;
8803;SDS011;4438;50.890;4.726;2023-05-07T09:36:11;6.83;;;4.60;;
8803;SDS011;4438;50.890;4.726;2023-05-07T09:38:37;5.07;;;4.20;;
8803;SDS011;4438;50.890;4.726;2023-05-07T09:41:08;4.77;;;4.20;;
8803;SDS011;4438;50.890;4.726;2023-05-07T09:43:35;4.90;;;4.30;;
8803;SDS011;4438;50.890;4.726;2023-05-07T09:46:30;5.90;;;4.80;;
8803;SDS011;4438;50.890;4.726;2023-05-07T09:48:49;6.93;;;4.33;;
8803;SDS011;4438;50.890;4.726;2023-05-07T09:53:44;5.93;;;4.53;;
8803;SDS011;4438;50.890;4.726;2023-05-07T09:56:12;5.17;;;4.13;;
8803;SDS011;4438;50.890;4.726;2023-05-07T09:58:39;6.37;;;4.30;;
8803;SDS011;4438;50.890;4.726;2023-05-07T10:01:07;5.13;;;3.90;;
8803;SDS011;4438;50.890;4.726;2023-05-07T10:03:33;4.20;;;3.80;;
8803;SDS011;4438;50.890;4.726;2023-05-07T10:06:01;6.43;;;4.10;;
8803;SDS011;4438;50.890;4.726;2023-05-07T10:08:27;6.33;;;3.83;;
8803;SDS011;4438;50.890;4.726;2023-05-07T10:10:55;6.90;;;3.97;;
8803;SDS011;4438;50.890;4.726;2023-05-07T10:13:21;7.17;;;4.60;;
8803;SDS011;4438;50.890;4.726;2023-05-07T10:15:47;6.00;;;4.20;;
8803;SDS011;4438;50.890;4.726;2023-05-07T10:18:13;6.10;;;4.33;;
8803;SDS011;4438;50.890;4.726;2023-05-07T10:20:40;6.70;;;4.90;;
8803;SDS011;4438;50.890;4.726;2023-05-07T10:23:08;4.87;;;4.40;;
8803;SDS011;4438;50.890;4.726;2023-05-07T10:25:35;5.87;;;4.57;;
8803;SDS011;4438;50.890;4.726;2023-05-07T10:28:06;5.03;;;4.17;;
8803;SDS011;4438;50.890;4.726;2023-05-07T10:33:19;4.90;;;3.70;;
8803;SDS011;4438;50.890;4.726;2023-05-07T10:35:48;5.30;;;3.97;;
8803;SDS011;4438;50.890;4.726;2023-05-07T10:38:14;5.87;;;3.70;;
8803;SDS011;4438;50.890;4.726;2023-05-07T10:40:41;7.07;;;3.87;;
8803;SDS011;4438;50.890;4.726;2023-05-07T10:43:07;5.37;;;3.63;;
8803;SDS011;4438;50.890;4.726;2023-05-07T10:45:33;5.17;;;3.83;;
8803;SDS011;4438;50.890;4.726;2023-05-07T10:48:12;4.70;;;3.77;;
8803;SDS011;4438;50.890;4.726;2023-05-07T10:50:39;6.17;;;3.93;;
8803;SDS011;4438;50.890;4.726;2023-05-07T10:55:45;5.50;;;3.80;;
8803;SDS011;4438;50.890;4.726;2023-05-07T11:00:47;6.37;;;4.13;;
8803;SDS011;4438;50.890;4.726;2023-05-07T11:03:14;4.13;;;3.57;;
8803;SDS011;4438;50.890;4.726;2023-05-07T11:05:40;3.73;;;3.10;;
8803;SDS011;4438;50.890;4.726;2023-05-07T11:08:07;6.10;;;3.10;;
8803;SDS011;4438;50.890;4.726;2023-05-07T11:10:53;5.97;;;3.47;;
8803;SDS011;4438;50.890;4.726;2023-05-07T11:13:40;6.57;;;3.50;;
8803;SDS011;4438;50.890;4.726;2023-05-07T11:16:05;6.83;;;3.40;;
8803;SDS011;4438;50.890;4.726;2023-05-07T11:18:49;3.70;;;3.23;;
8803;SDS011;4438;50.890;4.726;2023-05-07T11:24:00;4.60;;;3.30;;
8803;SDS011;4438;50.890;4.726;2023-05-07T11:26:27;3.57;;;3.10;;
8803;SDS011;4438;50.890;4.726;2023-05-07T11:28:54;5.10;;;3.00;;
8803;SDS011;4438;50.890;4.726;2023-05-07T11:31:20;4.47;;;2.93;;
8803;SDS011;4438;50.890;4.726;2023-05-07T11:33:47;5.10;;;3.30;;
8803;SDS011;4438;50.890;4.726;2023-05-07T11:36:13;3.63;;;3.07;;
8803;SDS011;4438;50.890;4.726;2023-05-07T11:38:39;4.30;;;2.63;;
8803;SDS011;4438;50.890;4.726;2023-05-07T11:41:07;3.53;;;2.50;;
8803;SDS011;4438;50.890;4.726;2023-05-07T11:43:33;2.87;;;2.50;;
8803;SDS011;4438;50.890;4.726;2023-05-07T11:46:08;3.97;;;2.40;;
8803;SDS011;4438;50.890;4.726;2023-05-07T11:48:35;3.60;;;2.70;;
8803;SDS011;4438;50.890;4.726;2023-05-07T11:51:02;4.93;;;2.30;;
8803;SDS011;4438;50.890;4.726;2023-05-07T11:53:35;5.13;;;2.90;;
8803;SDS011;4438;50.890;4.726;2023-05-07T11:56:05;3.10;;;2.70;;
8803;SDS011;4438;50.890;4.726;2023-05-07T11:58:31;4.23;;;2.60;;
8803;SDS011;4438;50.890;4.726;2023-05-07T12:00:57;5.50;;;3.00;;
8803;SDS011;4438;50.890;4.726;2023-05-07T12:03:23;2.57;;;2.30;;
8803;SDS011;4438;50.890;4.726;2023-05-07T12:05:50;3.60;;;2.93;;
8803;SDS011;4438;50.890;4.726;2023-05-07T12:08:16;3.70;;;2.67;;
8803;SDS011;4438;50.890;4.726;2023-05-07T12:10:43;4.13;;;2.93;;
8803;SDS011;4438;50.890;4.726;2023-05-07T12:13:19;3.97;;;2.80;;
8803;SDS011;4438;50.890;4.726;2023-05-07T12:15:46;3.67;;;3.20;;
8803;SDS011;4438;50.890;4.726;2023-05-07T12:18:13;4.67;;;3.23;;
8803;SDS011;4438;50.890;4.726;2023-05-07T12:20:39;5.53;;;3.20;;
8803;SDS011;4438;50.890;4.726;2023-05-07T12:23:06;3.67;;;3.13;;
8803;SDS011;4438;50.890;4.726;2023-05-07T12:25:34;3.90;;;2.97;;
8803;SDS011;4438;50.890;4.726;2023-05-07T12:28:01;5.00;;;3.10;;
8803;SDS011;4438;50.890;4.726;2023-05-07T12:30:28;4.20;;;2.93;;
8803;SDS011;4438;50.890;4.726;2023-05-07T12:32:55;3.27;;;2.80;;
8803;SDS011;4438;50.890;4.726;2023-05-07T12:35:30;2.60;;;2.40;;
8803;SDS011;4438;50.890;4.726;2023-05-07T12:37:57;3.10;;;2.33;;
8803;SDS011;4438;50.890;4.726;2023-05-07T12:40:29;2.63;;;1.80;;
8803;SDS011;4438;50.890;4.726;2023-05-07T12:43:00;4.50;;;1.90;;
8803;SDS011;4438;50.890;4.726;2023-05-07T12:45:27;3.80;;;2.40;;
8803;SDS011;4438;50.890;4.726;2023-05-07T12:47:53;2.83;;;2.23;;
8803;SDS011;4438;50.890;4.726;2023-05-07T12:50:19;3.17;;;2.13;;
8803;SDS011;4438;50.890;4.726;2023-05-07T12:52:48;2.63;;;2.27;;
8803;SDS011;4438;50.890;4.726;2023-05-07T12:55:15;2.67;;;2.30;;
8803;SDS011;4438;50.890;4.726;2023-05-07T12:57:42;3.10;;;2.40;;
8803;SDS011;4438;50.890;4.726;2023-05-07T13:00:09;3.80;;;2.63;;
8803;SDS011;4438;50.890;4.726;2023-05-07T13:02:39;4.67;;;2.60;;
8803;SDS011;4438;50.890;4.726;2023-05-07T13:05:05;3.43;;;2.50;;
8803;SDS011;4438;50.890;4.726;2023-05-07T13:07:32;3.07;;;2.43;;
8803;SDS011;4438;50.890;4.726;2023-05-07T13:09:58;2.73;;;2.30;;
8803;SDS011;4438;50.890;4.726;2023-05-07T13:12:25;3.67;;;2.50;;
8803;SDS011;4438;50.890;4.726;2023-05-07T13:14:51;3.30;;;2.47;;
8803;SDS011;4438;50.890;4.726;2023-05-07T13:17:20;3.50;;;2.40;;
8803;SDS011;4438;50.890;4.726;2023-05-07T13:19:46;3.63;;;2.57;;
8803;SDS011;4438;50.890;4.726;2023-05-07T13:22:12;3.40;;;2.30;;
8803;SDS011;4438;50.890;4.726;2023-05-07T13:24:39;3.80;;;2.30;;
8803;SDS011;4438;50.890;4.726;2023-05-07T13:27:08;2.53;;;2.33;;
8803;SDS011;4438;50.890;4.726;2023-05-07T13:29:34;2.60;;;2.40;;
8803;SDS011;4438;50.890;4.726;2023-05-07T13:32:00;3.93;;;2.70;;
8803;SDS011;4438;50.890;4.726;2023-05-07T13:34:27;2.90;;;2.30;;
8803;SDS011;4438;50.890;4.726;2023-05-07T13:36:54;3.13;;;2.40;;
8803;SDS011;4438;50.890;4.726;2023-05-07T13:39:20;4.90;;;3.00;;
8803;SDS011;4438;50.890;4.726;2023-05-07T13:41:46;4.97;;;2.70;;
8803;SDS011;4438;50.890;4.726;2023-05-07T13:44:12;3.03;;;2.80;;
8803;SDS011;4438;50.890;4.726;2023-05-07T13:46:38;3.70;;;2.70;;
8803;SDS011;4438;50.890;4.726;2023-05-07T13:49:04;4.73;;;2.70;;
8803;SDS011;4438;50.890;4.726;2023-05-07T13:51:31;5.63;;;3.60;;
8803;SDS011;4438;50.890;4.726;2023-05-07T13:53:57;5.80;;;3.33;;
8803;SDS011;4438;50.890;4.726;2023-05-07T13:56:23;3.97;;;3.03;;
8803;SDS011;4438;50.890;4.726;2023-05-07T13:58:49;4.63;;;3.00;;
8803;SDS011;4438;50.890;4.726;2023-05-07T14:01:15;3.97;;;2.80;;
8803;SDS011;4438;50.890;4.726;2023-05-07T14:03:42;6.20;;;3.30;;
8803;SDS011;4438;50.890;4.726;2023-05-07T14:06:08;4.40;;;3.47;;
8803;SDS011;4438;50.890;4.726;2023-05-07T14:08:34;3.67;;;3.03;;
8803;SDS011;4438;50.890;4.726;2023-05-07T14:11:00;4.47;;;3.47;;
8803;SDS011;4438;50.890;4.726;2023-05-07T14:13:26;3.70;;;3.30;;
8803;SDS011;4438;50.890;4.726;2023-05-07T14:15:52;3.20;;;2.90;;
8803;SDS011;4438;50.890;4.726;2023-05-07T14:18:19;4.07;;;3.00;;
8803;SDS011;4438;50.890;4.726;2023-05-07T14:20:45;3.57;;;2.97;;
8803;SDS011;4438;50.890;4.726;2023-05-07T14:23:12;3.73;;;2.80;;
8803;SDS011;4438;50.890;4.726;2023-05-07T14:25:39;4.80;;;2.73;;
8803;SDS011;4438;50.890;4.726;2023-05-07T14:28:05;3.30;;;3.00;;
8803;SDS011;4438;50.890;4.726;2023-05-07T14:30:31;3.73;;;3.00;;
8803;SDS011;4438;50.890;4.726;2023-05-07T14:32:57;4.07;;;3.07;;
8803;SDS011;4438;50.890;4.726;2023-05-07T14:35:23;4.03;;;2.93;;
8803;SDS011;4438;50.890;4.726;2023-05-07T14:37:49;3.57;;;3.00;;
8803;SDS011;4438;50.890;4.726;2023-05-07T14:40:16;3.77;;;2.87;;
8803;SDS011;4438;50.890;4.726;2023-05-07T14:42:42;4.13;;;3.10;;
8803;SDS011;4438;50.890;4.726;2023-05-07T14:45:08;3.20;;;2.90;;
8803;SDS011;4438;50.890;4.726;2023-05-07T14:47:34;4.43;;;3.00;;
8803;SDS011;4438;50.890;4.726;2023-05-07T14:50:01;4.50;;;3.23;;
8803;SDS011;4438;50.890;4.726;2023-05-07T14:52:27;3.80;;;3.27;;
8803;SDS011;4438;50.890;4.726;2023-05-07T14:54:53;5.10;;;3.73;;
8803;SDS011;4438;50.890;4.726;2023-05-07T14:57:19;3.60;;;3.27;;
8803;SDS011;4438;50.890;4.726;2023-05-07T14:59:45;3.27;;;2.90;;
8803;SDS011;4438;50.890;4.726;2023-05-07T15:02:12;4.17;;;3.00;;
8803;SDS011;4438;50.890;4.726;2023-05-07T15:04:38;3.50;;;3.20;;
8803;SDS011;4438;50.890;4.726;2023-05-07T15:07:11;3.90;;;3.50;;
8803;SDS011;4438;50.890;4.726;2023-05-07T15:09:40;4.00;;;3.50;;
8803;SDS011;4438;50.890;4.726;2023-05-07T15:12:06;3.90;;;3.37;;
8803;SDS011;4438;50.890;4.726;2023-05-07T15:14:32;3.77;;;3.40;;
8803;SDS011;4438;50.890;4.726;2023-05-07T15:16:59;3.87;;;3.57;;
8803;SDS011;4438;50.890;4.726;2023-05-07T15:19:25;4.00;;;3.60;;
8803;SDS011;4438;50.890;4.726;2023-05-07T15:21:54;3.97;;;2.90;;